createdAt,value
2023-05-13T07:29:59.750Z,145212.78
2023-05-13T07:35:03.388Z,145079.13
2023-05-13T07:40:07.825Z,144954.31
2023-05-13T07:45:14.174Z,144955.53
2023-05-13T07:50:18.159Z,144890.59
2023-05-13T07:55:22.302Z,144807.00
2023-05-13T08:00:27.798Z,144860.66
2023-05-13T08:05:32.059Z,144697.28
2023-05-13T08:10:35.546Z,144624.94
2023-05-13T08:15:40.578Z,144500.28
2023-05-13T08:20:44.081Z,144489.03
2023-05-13T08:25:47.986Z,144510.25
2023-05-13T08:30:52.863Z,144525.22
2023-05-13T08:35:58.730Z,144568.81
2023-05-13T08:41:04.934Z,144560.13
2023-05-13T08:46:11.181Z,144525.22
2023-05-13T08:51:14.962Z,144585.06
2023-05-13T08:56:18.582Z,144652.38
2023-05-13T09:01:24.177Z,144644.91
2023-05-13T09:06:28.657Z,144712.22
2023-05-13T09:11:33.489Z,144626.19
2023-05-13T09:16:41.959Z,144652.38
2023-05-13T09:21:45.610Z,144626.19
2023-05-13T09:26:49.599Z,144632.41
2023-05-13T09:31:55.497Z,144709.72
2023-05-13T09:37:02.478Z,144804.50
2023-05-13T09:42:15.671Z,144763.38
2023-05-13T09:47:25.402Z,144748.38
2023-05-13T09:52:30.224Z,144818.25
2023-05-13T09:57:33.908Z,144851.94
2023-05-13T10:02:39.504Z,144851.94
2023-05-13T10:07:43.062Z,144936.81
2023-05-13T10:12:47.384Z,144956.78
2023-05-13T10:17:52.343Z,144916.81
2023-05-13T10:22:56.363Z,144906.84
2023-05-13T10:27:59.985Z,144915.56
2023-05-13T10:33:06.043Z,144903.13
2023-05-13T10:38:11.309Z,144945.53
2023-05-13T10:43:18.275Z,145025.44
2023-05-13T10:48:23.425Z,145016.72
2023-05-13T10:53:29.354Z,145090.34
2023-05-13T10:58:35.337Z,145137.81
2023-05-13T11:03:40.799Z,145161.56
2023-05-13T11:08:45.122Z,145216.53
2023-05-13T11:13:51.242Z,145282.72
2023-05-13T11:18:58.453Z,145249.00
2023-05-13T11:24:03.928Z,145276.50
2023-05-13T11:29:07.341Z,145272.75
2023-05-13T11:34:15.708Z,145220.28
2023-05-13T11:39:19.970Z,145110.34
2023-05-13T11:44:24.222Z,145224.00
2023-05-13T11:49:40.017Z,145190.28
2023-05-13T11:54:48.314Z,145207.81
2023-05-13T11:59:52.595Z,145216.53
2023-05-13T12:04:57.671Z,145316.47
2023-05-13T12:10:01.861Z,145299.00
2023-05-13T12:15:06.460Z,145267.75
2023-05-13T12:20:23.950Z,145215.28
2023-05-13T12:25:37.375Z,145177.81
2023-05-13T12:30:44.297Z,145204.00
2023-05-13T12:35:49.820Z,145192.78
2023-05-13T12:40:54.739Z,145129.09
2023-05-13T12:45:58.370Z,145146.56
2023-05-13T12:51:08.289Z,145165.31
2023-05-13T12:56:14.724Z,145182.81
2023-05-13T13:01:19.140Z,145262.78
2023-05-13T13:06:24.236Z,145251.50
2023-05-13T13:11:28.327Z,145194.03
2023-05-13T13:16:32.041Z,145247.75
2023-05-13T13:21:36.987Z,145266.50
2023-05-13T13:26:40.920Z,145354.00
2023-05-13T13:31:44.600Z,145428.97
2023-05-13T13:36:50.323Z,145449.03
2023-05-13T13:41:55.131Z,145446.53
2023-05-13T13:47:01.161Z,145204.00
2023-05-13T13:52:06.222Z,145217.78
2023-05-13T13:57:09.667Z,145251.50
2023-05-13T14:02:13.192Z,145252.75
2023-05-13T14:07:21.588Z,145300.25
2023-05-13T14:12:24.954Z,145277.75
2023-05-13T14:17:30.694Z,145240.28
2023-05-13T14:22:35.414Z,145281.47
2023-05-13T14:27:41.439Z,145287.72
2023-05-13T14:32:45.061Z,145256.50
2023-05-13T14:37:49.880Z,145184.06
2023-05-13T14:42:53.276Z,145146.56
2023-05-13T14:48:01.960Z,145159.06
2023-05-13T14:53:06.635Z,145155.31
2023-05-13T14:58:15.891Z,145180.31
2023-05-13T15:03:19.260Z,145144.06
2023-05-13T15:08:24.054Z,145157.81
2023-05-13T15:13:28.667Z,145196.53
2023-05-13T15:18:32.407Z,145156.56
2023-05-13T15:23:37.277Z,145195.28
2023-05-13T15:28:40.752Z,145202.75
2023-05-13T15:33:46.474Z,145210.28
2023-05-13T15:38:53.974Z,145231.50
2023-05-13T15:43:57.241Z,145281.47
2023-05-13T15:49:00.703Z,145171.53
2023-05-13T15:54:05.862Z,145077.88
2023-05-13T15:59:09.435Z,145019.19
2023-05-13T16:04:15.381Z,144970.50
2023-05-13T16:09:20.258Z,144986.75
2023-05-13T16:14:25.972Z,145037.94
2023-05-13T16:19:29.316Z,145056.63
2023-05-13T16:24:34.182Z,145086.59
2023-05-13T16:29:37.928Z,145066.66
2023-05-13T16:35:01.460Z,145019.19
2023-05-13T16:40:05.618Z,144925.59
2023-05-13T16:45:09.479Z,144886.88
2023-05-13T16:50:16.882Z,144762.13
2023-05-13T16:55:22.530Z,144696.03
2023-05-13T17:00:26.097Z,144708.47
2023-05-13T17:05:36.669Z,144678.56
2023-05-13T17:10:40.298Z,144677.31
2023-05-13T17:15:43.729Z,144717.19
2023-05-13T17:20:48.639Z,144713.47
2023-05-13T17:25:52.391Z,144722.19
2023-05-13T17:30:58.912Z,144742.16
2023-05-13T17:36:03.929Z,144742.16
2023-05-13T17:41:07.428Z,144722.19
2023-05-13T17:46:11.333Z,144657.34
2023-05-13T17:51:16.364Z,144617.47
2023-05-13T17:56:22.475Z,144557.63
2023-05-13T18:01:26.260Z,144516.47
2023-05-13T18:06:31.354Z,144437.94
2023-05-13T18:11:34.758Z,144393.13
2023-05-13T18:16:38.287Z,144323.34
2023-05-13T18:21:43.242Z,144295.94
2023-05-13T18:26:46.868Z,144243.66
2023-05-13T18:31:50.515Z,144206.28
2023-05-13T18:36:57.218Z,144175.16
2023-05-13T18:42:00.985Z,144114.16
2023-05-13T18:47:07.763Z,144074.34
2023-05-13T18:52:12.921Z,144050.69
2023-05-13T18:57:16.558Z,144024.56
2023-05-13T19:02:21.336Z,143999.69
2023-05-13T19:07:30.660Z,143966.09
2023-05-13T19:12:34.114Z,143935.00
2023-05-13T19:17:40.305Z,143901.44
2023-05-13T19:22:45.630Z,143872.81
2023-05-13T19:27:51.433Z,143831.75
2023-05-13T19:32:57.813Z,143794.47
2023-05-13T19:38:03.510Z,143767.13
2023-05-13T19:43:09.227Z,143717.38
2023-05-13T19:48:13.857Z,143685.06
2023-05-13T19:53:18.795Z,143641.56
2023-05-13T19:58:22.732Z,143604.28
2023-05-13T20:03:26.311Z,143578.19
2023-05-13T20:08:33.330Z,143569.50
2023-05-13T20:13:39.275Z,143514.84
2023-05-13T20:18:42.876Z,143467.66
2023-05-13T20:23:48.004Z,143424.22
2023-05-13T20:28:52.011Z,143391.88
2023-05-13T20:33:55.778Z,143345.97
2023-05-13T20:39:00.603Z,143312.47
2023-05-13T20:44:04.133Z,143275.22
2023-05-13T20:49:08.262Z,143244.19
2023-05-13T20:54:13.321Z,143223.13
2023-05-13T20:59:16.689Z,143198.31
2023-05-13T21:04:20.421Z,143192.06
2023-05-13T21:09:25.351Z,143147.44
